METAR Data
IDs: Format: Raw Decoded Include TAF

Data at: 1752 UTC 03 Jul 2020

METAR for:KFFO (Wright-Patterson AFB, OH, US)
Text:KFFO 031656Z AUTO 02006KT 10SM FEW220 32/14 A3004 RMK AO2 SLP168 T03190136
Temperature: 31.9°C ( 89°F)
Dewpoint: 13.6°C ( 56°F) [RH = 33%]
Pressure (altimeter):30.04 inches Hg (1017.4 mb) [Sea level pressure: 1016.8 mb]
Winds:from the NNE (20 degrees) at 7 MPH (6 knots; 3.1 m/s)
Visibility:10 or more sm (16+ km)
Ceiling:at least 12,000 feet AGL
Clouds: few clouds at 22000 feet AGL
QC Flag:automated observation with no human augmentation